sensor_id;sensor_type;location;lat;lon;timestamp;temperature;humidity
16417;DHT22;8317;52.186;5.688;2023-05-25T00:01:08;10.60;99.90
16417;DHT22;8317;52.186;5.688;2023-05-25T00:03:36;10.60;99.90
16417;DHT22;8317;52.186;5.688;2023-05-25T00:06:05;10.50;99.90
16417;DHT22;8317;52.186;5.688;2023-05-25T00:08:32;10.50;99.90
16417;DHT22;8317;52.186;5.688;2023-05-25T00:10:59;10.40;99.90
16417;DHT22;8317;52.186;5.688;2023-05-25T00:13:26;10.50;99.90
16417;DHT22;8317;52.186;5.688;2023-05-25T00:15:53;10.40;99.90
16417;DHT22;8317;52.186;5.688;2023-05-25T00:18:20;10.40;99.90
16417;DHT22;8317;52.186;5.688;2023-05-25T00:20:48;10.40;99.90
16417;DHT22;8317;52.186;5.688;2023-05-25T00:23:18;10.40;99.90
16417;DHT22;8317;52.186;5.688;2023-05-25T00:25:45;10.40;99.90
16417;DHT22;8317;52.186;5.688;2023-05-25T00:28:12;10.20;99.90
16417;DHT22;8317;52.186;5.688;2023-05-25T00:30:39;10.00;99.90
16417;DHT22;8317;52.186;5.688;2023-05-25T00:33:06;10.00;99.90
16417;DHT22;8317;52.186;5.688;2023-05-25T00:35:34;10.10;99.90
16417;DHT22;8317;52.186;5.688;2023-05-25T00:38:03;10.00;99.90
16417;DHT22;8317;52.186;5.688;2023-05-25T00:40:30;10.00;99.90
16417;DHT22;8317;52.186;5.688;2023-05-25T00:42:58;10.00;99.90
16417;DHT22;8317;52.186;5.688;2023-05-25T00:45:25;10.00;99.90
16417;DHT22;8317;52.186;5.688;2023-05-25T00:47:53;10.00;99.90
16417;DHT22;8317;52.186;5.688;2023-05-25T00:50:29;9.90;99.90
16417;DHT22;8317;52.186;5.688;2023-05-25T00:53:03;9.90;99.90
16417;DHT22;8317;52.186;5.688;2023-05-25T00:55:34;9.90;99.90
16417;DHT22;8317;52.186;5.688;2023-05-25T00:58:03;9.80;99.90
16417;DHT22;8317;52.186;5.688;2023-05-25T01:00:32;9.80;99.90
16417;DHT22;8317;52.186;5.688;2023-05-25T01:03:03;9.80;99.90
16417;DHT22;8317;52.186;5.688;2023-05-25T01:05:33;9.70;99.90
16417;DHT22;8317;52.186;5.688;2023-05-25T01:08:04;9.70;99.90
16417;DHT22;8317;52.186;5.688;2023-05-25T01:10:32;9.60;99.90
16417;DHT22;8317;52.186;5.688;2023-05-25T01:13:02;9.60;99.90
16417;DHT22;8317;52.186;5.688;2023-05-25T01:15:31;9.60;99.90
16417;DHT22;8317;52.186;5.688;2023-05-25T01:17:58;9.50;99.90
16417;DHT22;8317;52.186;5.688;2023-05-25T01:20:26;9.50;99.90
16417;DHT22;8317;52.186;5.688;2023-05-25T01:22:59;9.50;99.90
16417;DHT22;8317;52.186;5.688;2023-05-25T01:25:47;9.40;99.90
16417;DHT22;8317;52.186;5.688;2023-05-25T01:28:22;9.40;99.90
16417;DHT22;8317;52.186;5.688;2023-05-25T01:30:51;9.40;99.90
16417;DHT22;8317;52.186;5.688;2023-05-25T01:33:19;9.40;99.90
16417;DHT22;8317;52.186;5.688;2023-05-25T01:35:46;9.40;99.90
16417;DHT22;8317;52.186;5.688;2023-05-25T01:38:17;9.30;99.90
16417;DHT22;8317;52.186;5.688;2023-05-25T01:40:43;9.20;99.90
16417;DHT22;8317;52.186;5.688;2023-05-25T01:43:10;9.20;99.90
16417;DHT22;8317;52.186;5.688;2023-05-25T01:45:37;9.20;99.90
16417;DHT22;8317;52.186;5.688;2023-05-25T01:48:09;9.20;99.90
16417;DHT22;8317;52.186;5.688;2023-05-25T01:50:42;9.20;99.90
16417;DHT22;8317;52.186;5.688;2023-05-25T01:53:17;9.20;99.90
16417;DHT22;8317;52.186;5.688;2023-05-25T01:55:49;9.20;99.90
16417;DHT22;8317;52.186;5.688;2023-05-25T01:58:18;9.20;99.90
16417;DHT22;8317;52.186;5.688;2023-05-25T02:00:46;9.20;99.90
16417;DHT22;8317;52.186;5.688;2023-05-25T02:03:15;9.10;99.90
16417;DHT22;8317;52.186;5.688;2023-05-25T02:05:42;9.10;99.90
16417;DHT22;8317;52.186;5.688;2023-05-25T02:08:09;9.10;99.90
16417;DHT22;8317;52.186;5.688;2023-05-25T02:10:38;9.00;99.90
16417;DHT22;8317;52.186;5.688;2023-05-25T02:13:05;9.00;99.90
16417;DHT22;8317;52.186;5.688;2023-05-25T02:15:32;9.00;99.90
16417;DHT22;8317;52.186;5.688;2023-05-25T02:17:59;9.00;99.90
16417;DHT22;8317;52.186;5.688;2023-05-25T02:20:26;8.90;99.90
16417;DHT22;8317;52.186;5.688;2023-05-25T02:22:53;8.90;99.90
16417;DHT22;8317;52.186;5.688;2023-05-25T02:25:20;8.90;99.90
16417;DHT22;8317;52.186;5.688;2023-05-25T02:27:49;8.90;99.90
16417;DHT22;8317;52.186;5.688;2023-05-25T02:30:16;8.80;99.90
16417;DHT22;8317;52.186;5.688;2023-05-25T02:32:43;8.80;99.90
16417;DHT22;8317;52.186;5.688;2023-05-25T02:35:10;8.80;99.90
16417;DHT22;8317;52.186;5.688;2023-05-25T02:37:36;8.80;99.90
16417;DHT22;8317;52.186;5.688;2023-05-25T02:40:05;8.80;99.90
16417;DHT22;8317;52.186;5.688;2023-05-25T02:42:32;8.80;99.90
16417;DHT22;8317;52.186;5.688;2023-05-25T02:45:00;8.70;99.90
16417;DHT22;8317;52.186;5.688;2023-05-25T02:47:27;8.70;99.90
16417;DHT22;8317;52.186;5.688;2023-05-25T02:49:53;8.60;99.90
16417;DHT22;8317;52.186;5.688;2023-05-25T02:52:20;8.60;99.90
16417;DHT22;8317;52.186;5.688;2023-05-25T02:54:47;8.60;99.90
16417;DHT22;8317;52.186;5.688;2023-05-25T02:57:14;8.50;99.90
16417;DHT22;8317;52.186;5.688;2023-05-25T02:59:41;8.50;99.90
16417;DHT22;8317;52.186;5.688;2023-05-25T03:02:09;8.40;99.90
16417;DHT22;8317;52.186;5.688;2023-05-25T03:04:36;8.40;99.90
16417;DHT22;8317;52.186;5.688;2023-05-25T03:07:04;8.30;99.90
16417;DHT22;8317;52.186;5.688;2023-05-25T03:09:31;8.30;99.90
16417;DHT22;8317;52.186;5.688;2023-05-25T03:11:58;8.30;99.90
16417;DHT22;8317;52.186;5.688;2023-05-25T03:14:25;8.30;99.90
16417;DHT22;8317;52.186;5.688;2023-05-25T03:16:52;8.20;99.90
16417;DHT22;8317;52.186;5.688;2023-05-25T03:19:20;8.20;99.90
16417;DHT22;8317;52.186;5.688;2023-05-25T03:21:47;8.20;99.90
16417;DHT22;8317;52.186;5.688;2023-05-25T03:24:14;8.10;99.90
16417;DHT22;8317;52.186;5.688;2023-05-25T03:26:41;8.10;99.90
16417;DHT22;8317;52.186;5.688;2023-05-25T03:29:07;8.00;99.90
16417;DHT22;8317;52.186;5.688;2023-05-25T03:31:35;8.00;99.90
16417;DHT22;8317;52.186;5.688;2023-05-25T03:34:02;8.00;99.90
16417;DHT22;8317;52.186;5.688;2023-05-25T03:36:30;8.00;99.90
16417;DHT22;8317;52.186;5.688;2023-05-25T03:38:58;8.00;99.90
16417;DHT22;8317;52.186;5.688;2023-05-25T03:41:25;8.00;99.90
16417;DHT22;8317;52.186;5.688;2023-05-25T03:43:52;7.90;99.90
16417;DHT22;8317;52.186;5.688;2023-05-25T03:46:19;7.90;99.90
16417;DHT22;8317;52.186;5.688;2023-05-25T03:48:46;7.80;99.90
16417;DHT22;8317;52.186;5.688;2023-05-25T03:51:13;7.80;99.90
16417;DHT22;8317;52.186;5.688;2023-05-25T03:53:42;7.80;99.90
16417;DHT22;8317;52.186;5.688;2023-05-25T03:56:09;7.80;99.90
16417;DHT22;8317;52.186;5.688;2023-05-25T03:58:36;7.80;99.90
16417;DHT22;8317;52.186;5.688;2023-05-25T04:01:03;7.70;99.90
16417;DHT22;8317;52.186;5.688;2023-05-25T04:03:30;7.70;99.90
16417;DHT22;8317;52.186;5.688;2023-05-25T04:05:57;7.70;99.90
16417;DHT22;8317;52.186;5.688;2023-05-25T04:08:25;7.70;99.90
16417;DHT22;8317;52.186;5.688;2023-05-25T04:10:54;7.60;99.90
16417;DHT22;8317;52.186;5.688;2023-05-25T04:13:21;7.70;99.90
16417;DHT22;8317;52.186;5.688;2023-05-25T04:15:48;7.60;99.90
16417;DHT22;8317;52.186;5.688;2023-05-25T04:18:15;7.70;99.90
16417;DHT22;8317;52.186;5.688;2023-05-25T04:20:45;7.70;99.90
16417;DHT22;8317;52.186;5.688;2023-05-25T04:23:11;7.70;99.90
16417;DHT22;8317;52.186;5.688;2023-05-25T04:25:38;7.70;99.90
16417;DHT22;8317;52.186;5.688;2023-05-25T04:28:08;7.70;99.90
16417;DHT22;8317;52.186;5.688;2023-05-25T04:30:36;7.70;99.90
16417;DHT22;8317;52.186;5.688;2023-05-25T04:33:04;7.70;99.90
16417;DHT22;8317;52.186;5.688;2023-05-25T04:35:31;7.80;99.90
16417;DHT22;8317;52.186;5.688;2023-05-25T04:37:58;7.80;99.90
16417;DHT22;8317;52.186;5.688;2023-05-25T04:40:27;7.90;99.90
16417;DHT22;8317;52.186;5.688;2023-05-25T04:42:54;7.90;99.90
16417;DHT22;8317;52.186;5.688;2023-05-25T04:45:23;7.90;99.90
16417;DHT22;8317;52.186;5.688;2023-05-25T04:47:49;8.00;99.90
16417;DHT22;8317;52.186;5.688;2023-05-25T04:50:17;8.00;99.90
16417;DHT22;8317;52.186;5.688;2023-05-25T04:52:44;8.10;99.90
16417;DHT22;8317;52.186;5.688;2023-05-25T04:55:10;8.10;99.90
16417;DHT22;8317;52.186;5.688;2023-05-25T04:57:38;8.10;99.90
16417;DHT22;8317;52.186;5.688;2023-05-25T05:00:06;8.20;99.90
16417;DHT22;8317;52.186;5.688;2023-05-25T05:02:36;8.30;99.90
16417;DHT22;8317;52.186;5.688;2023-05-25T05:05:04;8.30;99.90
16417;DHT22;8317;52.186;5.688;2023-05-25T05:07:31;8.50;99.90
16417;DHT22;8317;52.186;5.688;2023-05-25T05:09:57;8.50;99.90
16417;DHT22;8317;52.186;5.688;2023-05-25T05:12:24;8.60;99.90
16417;DHT22;8317;52.186;5.688;2023-05-25T05:14:51;8.60;99.90
16417;DHT22;8317;52.186;5.688;2023-05-25T05:17:20;8.70;99.90
16417;DHT22;8317;52.186;5.688;2023-05-25T05:19:48;8.80;99.90
16417;DHT22;8317;52.186;5.688;2023-05-25T05:22:15;8.90;99.90
16417;DHT22;8317;52.186;5.688;2023-05-25T05:24:42;8.90;99.90
16417;DHT22;8317;52.186;5.688;2023-05-25T05:27:11;9.00;99.90
16417;DHT22;8317;52.186;5.688;2023-05-25T05:29:38;9.10;99.90
16417;DHT22;8317;52.186;5.688;2023-05-25T05:32:06;9.30;99.90
16417;DHT22;8317;52.186;5.688;2023-05-25T05:34:33;9.40;99.90
16417;DHT22;8317;52.186;5.688;2023-05-25T05:37:02;9.50;99.90
16417;DHT22;8317;52.186;5.688;2023-05-25T05:39:29;9.70;99.90
16417;DHT22;8317;52.186;5.688;2023-05-25T05:41:56;9.90;99.90
16417;DHT22;8317;52.186;5.688;2023-05-25T05:44:23;10.10;99.90
16417;DHT22;8317;52.186;5.688;2023-05-25T05:46:50;10.30;99.90
16417;DHT22;8317;52.186;5.688;2023-05-25T05:49:17;10.50;99.90
16417;DHT22;8317;52.186;5.688;2023-05-25T05:51:43;10.70;99.90
16417;DHT22;8317;52.186;5.688;2023-05-25T05:54:12;10.90;99.90
16417;DHT22;8317;52.186;5.688;2023-05-25T05:56:38;11.10;99.90
16417;DHT22;8317;52.186;5.688;2023-05-25T05:59:05;11.30;99.90
16417;DHT22;8317;52.186;5.688;2023-05-25T06:01:33;11.50;99.90
16417;DHT22;8317;52.186;5.688;2023-05-25T06:03:59;11.70;99.90
16417;DHT22;8317;52.186;5.688;2023-05-25T06:06:26;11.90;99.90
16417;DHT22;8317;52.186;5.688;2023-05-25T06:08:53;11.90;99.90
16417;DHT22;8317;52.186;5.688;2023-05-25T06:11:21;11.90;99.90
16417;DHT22;8317;52.186;5.688;2023-05-25T06:13:48;12.00;99.90
16417;DHT22;8317;52.186;5.688;2023-05-25T06:16:15;12.00;99.90
16417;DHT22;8317;52.186;5.688;2023-05-25T06:18:42;12.10;99.90
16417;DHT22;8317;52.186;5.688;2023-05-25T06:21:09;12.10;99.90
16417;DHT22;8317;52.186;5.688;2023-05-25T06:23:36;12.10;99.90
16417;DHT22;8317;52.186;5.688;2023-05-25T06:26:03;12.10;99.90
16417;DHT22;8317;52.186;5.688;2023-05-25T06:28:32;12.20;99.90
16417;DHT22;8317;52.186;5.688;2023-05-25T06:30:59;12.40;99.90
16417;DHT22;8317;52.186;5.688;2023-05-25T06:33:26;12.40;99.90
16417;DHT22;8317;52.186;5.688;2023-05-25T06:35:53;12.40;99.90
16417;DHT22;8317;52.186;5.688;2023-05-25T06:38:24;12.30;99.90
16417;DHT22;8317;52.186;5.688;2023-05-25T06:40:51;12.30;99.90
16417;DHT22;8317;52.186;5.688;2023-05-25T06:43:18;12.30;99.90
16417;DHT22;8317;52.186;5.688;2023-05-25T06:45:46;12.30;99.90
16417;DHT22;8317;52.186;5.688;2023-05-25T06:48:14;12.60;99.90
16417;DHT22;8317;52.186;5.688;2023-05-25T06:50:41;12.90;99.90
16417;DHT22;8317;52.186;5.688;2023-05-25T06:53:08;13.30;99.90
16417;DHT22;8317;52.186;5.688;2023-05-25T06:55:35;13.40;99.90
16417;DHT22;8317;52.186;5.688;2023-05-25T06:58:02;13.70;99.90
16417;DHT22;8317;52.186;5.688;2023-05-25T07:00:29;13.80;99.90
16417;DHT22;8317;52.186;5.688;2023-05-25T07:02:57;13.80;99.90
16417;DHT22;8317;52.186;5.688;2023-05-25T07:05:24;13.80;99.90
16417;DHT22;8317;52.186;5.688;2023-05-25T07:07:51;13.80;99.90
16417;DHT22;8317;52.186;5.688;2023-05-25T07:10:18;13.80;99.90
16417;DHT22;8317;52.186;5.688;2023-05-25T07:12:45;14.00;99.90
16417;DHT22;8317;52.186;5.688;2023-05-25T07:15:12;14.10;99.90
16417;DHT22;8317;52.186;5.688;2023-05-25T07:17:39;14.20;99.90
16417;DHT22;8317;52.186;5.688;2023-05-25T07:20:08;14.10;99.90
16417;DHT22;8317;52.186;5.688;2023-05-25T07:22:37;14.10;99.90
16417;DHT22;8317;52.186;5.688;2023-05-25T07:25:05;14.10;99.90
16417;DHT22;8317;52.186;5.688;2023-05-25T07:27:32;14.30;99.90
16417;DHT22;8317;52.186;5.688;2023-05-25T07:30:00;14.30;99.90
16417;DHT22;8317;52.186;5.688;2023-05-25T07:32:27;14.30;99.90
16417;DHT22;8317;52.186;5.688;2023-05-25T07:34:54;14.30;99.90
16417;DHT22;8317;52.186;5.688;2023-05-25T07:37:22;14.30;99.90
16417;DHT22;8317;52.186;5.688;2023-05-25T07:39:49;14.30;99.90
16417;DHT22;8317;52.186;5.688;2023-05-25T07:42:16;14.30;99.90
16417;DHT22;8317;52.186;5.688;2023-05-25T07:44:45;14.10;99.90
16417;DHT22;8317;52.186;5.688;2023-05-25T07:47:12;14.00;99.90
16417;DHT22;8317;52.186;5.688;2023-05-25T07:49:39;14.10;99.90
16417;DHT22;8317;52.186;5.688;2023-05-25T07:52:06;14.10;99.90
16417;DHT22;8317;52.186;5.688;2023-05-25T07:54:35;14.20;99.90
16417;DHT22;8317;52.186;5.688;2023-05-25T07:57:04;14.20;99.90
16417;DHT22;8317;52.186;5.688;2023-05-25T07:59:32;14.10;99.90
16417;DHT22;8317;52.186;5.688;2023-05-25T08:01:59;14.10;99.90
16417;DHT22;8317;52.186;5.688;2023-05-25T08:04:26;14.10;99.90
16417;DHT22;8317;52.186;5.688;2023-05-25T08:06:53;14.10;99.90
16417;DHT22;8317;52.186;5.688;2023-05-25T08:09:20;14.10;99.90
16417;DHT22;8317;52.186;5.688;2023-05-25T08:11:48;14.20;99.90
16417;DHT22;8317;52.186;5.688;2023-05-25T08:14:15;14.40;99.90
16417;DHT22;8317;52.186;5.688;2023-05-25T08:16:42;14.80;99.90
16417;DHT22;8317;52.186;5.688;2023-05-25T08:19:09;15.10;99.90
16417;DHT22;8317;52.186;5.688;2023-05-25T08:21:36;15.30;99.90
16417;DHT22;8317;52.186;5.688;2023-05-25T08:24:04;15.40;90.30
16417;DHT22;8317;52.186;5.688;2023-05-25T08:26:32;15.60;99.90
16417;DHT22;8317;52.186;5.688;2023-05-25T08:29:02;15.40;1.00
16417;DHT22;8317;52.186;5.688;2023-05-25T08:31:30;15.40;52.70
16417;DHT22;8317;52.186;5.688;2023-05-25T08:33:57;15.50;77.30
16417;DHT22;8317;52.186;5.688;2023-05-25T08:36:23;15.80;92.70
16417;DHT22;8317;52.186;5.688;2023-05-25T08:38:51;16.40;55.70
16417;DHT22;8317;52.186;5.688;2023-05-25T08:41:18;16.90;32.20
16417;DHT22;8317;52.186;5.688;2023-05-25T08:43:46;17.20;1.00
16417;DHT22;8317;52.186;5.688;2023-05-25T08:46:14;17.40;1.00
16417;DHT22;8317;52.186;5.688;2023-05-25T08:48:50;17.40;1.00
16417;DHT22;8317;52.186;5.688;2023-05-25T08:51:18;17.40;1.00
16417;DHT22;8317;52.186;5.688;2023-05-25T08:53:45;17.30;1.00
16417;DHT22;8317;52.186;5.688;2023-05-25T08:56:15;17.30;1.00
16417;DHT22;8317;52.186;5.688;2023-05-25T08:58:45;17.40;1.00
16417;DHT22;8317;52.186;5.688;2023-05-25T09:01:20;17.40;1.00
16417;DHT22;8317;52.186;5.688;2023-05-25T09:03:48;17.20;1.00
16417;DHT22;8317;52.186;5.688;2023-05-25T09:06:16;17.00;1.00
16417;DHT22;8317;52.186;5.688;2023-05-25T09:08:44;16.70;1.00
16417;DHT22;8317;52.186;5.688;2023-05-25T09:11:11;16.50;1.00
16417;DHT22;8317;52.186;5.688;2023-05-25T09:13:39;16.80;12.00
16417;DHT22;8317;52.186;5.688;2023-05-25T09:16:06;17.20;25.90
16417;DHT22;8317;52.186;5.688;2023-05-25T09:18:34;17.40;1.00
16417;DHT22;8317;52.186;5.688;2023-05-25T09:21:01;17.30;1.00
16417;DHT22;8317;52.186;5.688;2023-05-25T09:23:29;17.00;1.00
16417;DHT22;8317;52.186;5.688;2023-05-25T09:25:57;16.90;1.00
16417;DHT22;8317;52.186;5.688;2023-05-25T09:28:24;16.90;1.00
16417;DHT22;8317;52.186;5.688;2023-05-25T09:30:51;16.70;1.00
16417;DHT22;8317;52.186;5.688;2023-05-25T09:33:18;16.60;1.00
16417;DHT22;8317;52.186;5.688;2023-05-25T09:35:47;16.40;1.00
16417;DHT22;8317;52.186;5.688;2023-05-25T09:38:15;16.40;1.00
16417;DHT22;8317;52.186;5.688;2023-05-25T09:40:42;16.30;1.00
16417;DHT22;8317;52.186;5.688;2023-05-25T09:43:09;16.80;1.00
16417;DHT22;8317;52.186;5.688;2023-05-25T09:45:36;16.80;1.00
16417;DHT22;8317;52.186;5.688;2023-05-25T09:48:05;16.80;1.00
16417;DHT22;8317;52.186;5.688;2023-05-25T09:50:32;16.90;1.00
16417;DHT22;8317;52.186;5.688;2023-05-25T09:53:01;16.90;1.00
16417;DHT22;8317;52.186;5.688;2023-05-25T09:55:29;16.70;1.00
16417;DHT22;8317;52.186;5.688;2023-05-25T09:57:56;16.70;1.00
16417;DHT22;8317;52.186;5.688;2023-05-25T10:00:23;16.70;1.00
16417;DHT22;8317;52.186;5.688;2023-05-25T10:02:51;17.40;1.00
16417;DHT22;8317;52.186;5.688;2023-05-25T10:05:18;18.20;1.00
16417;DHT22;8317;52.186;5.688;2023-05-25T10:07:45;18.40;1.00
16417;DHT22;8317;52.186;5.688;2023-05-25T10:10:14;18.00;1.00
16417;DHT22;8317;52.186;5.688;2023-05-25T10:12:42;17.80;1.00
16417;DHT22;8317;52.186;5.688;2023-05-25T10:15:11;17.70;1.00
16417;DHT22;8317;52.186;5.688;2023-05-25T10:17:42;18.00;1.00
16417;DHT22;8317;52.186;5.688;2023-05-25T10:20:10;18.00;1.00
16417;DHT22;8317;52.186;5.688;2023-05-25T10:22:43;17.90;1.00
16417;DHT22;8317;52.186;5.688;2023-05-25T10:25:19;17.80;1.00
16417;DHT22;8317;52.186;5.688;2023-05-25T10:27:52;17.60;1.00
16417;DHT22;8317;52.186;5.688;2023-05-25T10:30:22;17.40;1.00
16417;DHT22;8317;52.186;5.688;2023-05-25T10:32:51;17.80;1.00
16417;DHT22;8317;52.186;5.688;2023-05-25T10:35:19;17.90;1.00
16417;DHT22;8317;52.186;5.688;2023-05-25T10:37:46;18.00;1.00
16417;DHT22;8317;52.186;5.688;2023-05-25T10:40:18;17.70;1.00
16417;DHT22;8317;52.186;5.688;2023-05-25T10:42:46;17.50;1.00
16417;DHT22;8317;52.186;5.688;2023-05-25T10:45:13;17.50;1.00
16417;DHT22;8317;52.186;5.688;2023-05-25T10:47:41;17.40;1.00
16417;DHT22;8317;52.186;5.688;2023-05-25T10:50:18;17.30;1.00
16417;DHT22;8317;52.186;5.688;2023-05-25T10:52:45;17.30;1.00
16417;DHT22;8317;52.186;5.688;2023-05-25T10:55:24;17.10;1.00
16417;DHT22;8317;52.186;5.688;2023-05-25T10:58:06;17.30;1.00
16417;DHT22;8317;52.186;5.688;2023-05-25T11:00:33;17.40;1.00
16417;DHT22;8317;52.186;5.688;2023-05-25T11:03:00;17.70;1.00
16417;DHT22;8317;52.186;5.688;2023-05-25T11:05:35;17.60;99.90
16417;DHT22;8317;52.186;5.688;2023-05-25T11:08:04;17.40;99.90
16417;DHT22;8317;52.186;5.688;2023-05-25T11:10:51;17.30;99.90
16417;DHT22;8317;52.186;5.688;2023-05-25T11:13:35;17.50;99.90
16417;DHT22;8317;52.186;5.688;2023-05-25T11:16:19;17.50;99.90
16417;DHT22;8317;52.186;5.688;2023-05-25T11:18:54;17.70;1.00
16417;DHT22;8317;52.186;5.688;2023-05-25T11:21:41;18.30;1.00
16417;DHT22;8317;52.186;5.688;2023-05-25T11:24:13;18.50;1.00
16417;DHT22;8317;52.186;5.688;2023-05-25T11:26:57;18.30;99.90
16417;DHT22;8317;52.186;5.688;2023-05-25T11:29:24;18.20;99.90
16417;DHT22;8317;52.186;5.688;2023-05-25T11:31:57;18.10;1.00
16417;DHT22;8317;52.186;5.688;2023-05-25T11:34:25;18.00;99.90
16417;DHT22;8317;52.186;5.688;2023-05-25T11:36:53;17.90;1.00
16417;DHT22;8317;52.186;5.688;2023-05-25T11:39:22;17.90;99.90
16417;DHT22;8317;52.186;5.688;2023-05-25T11:41:53;17.80;1.00
16417;DHT22;8317;52.186;5.688;2023-05-25T11:44:28;17.70;99.90
16417;DHT22;8317;52.186;5.688;2023-05-25T11:46:56;17.70;99.90
16417;DHT22;8317;52.186;5.688;2023-05-25T11:49:26;17.80;99.90
16417;DHT22;8317;52.186;5.688;2023-05-25T11:51:53;17.90;99.90
16417;DHT22;8317;52.186;5.688;2023-05-25T11:54:21;18.10;99.90
16417;DHT22;8317;52.186;5.688;2023-05-25T11:56:48;18.10;99.90
16417;DHT22;8317;52.186;5.688;2023-05-25T11:59:17;18.40;1.00
16417;DHT22;8317;52.186;5.688;2023-05-25T12:01:54;18.40;1.00
16417;DHT22;8317;52.186;5.688;2023-05-25T12:04:21;18.40;99.90
16417;DHT22;8317;52.186;5.688;2023-05-25T12:06:48;18.30;99.90
16417;DHT22;8317;52.186;5.688;2023-05-25T12:09:19;18.30;99.90
16417;DHT22;8317;52.186;5.688;2023-05-25T12:11:47;17.90;99.90
16417;DHT22;8317;52.186;5.688;2023-05-25T12:14:14;17.60;99.90
16417;DHT22;8317;52.186;5.688;2023-05-25T12:16:42;17.40;1.00
16417;DHT22;8317;52.186;5.688;2023-05-25T12:19:10;17.40;1.00
16417;DHT22;8317;52.186;5.688;2023-05-25T12:21:37;17.30;1.00
16417;DHT22;8317;52.186;5.688;2023-05-25T12:24:05;17.20;1.00
16417;DHT22;8317;52.186;5.688;2023-05-25T12:26:33;17.20;1.00
16417;DHT22;8317;52.186;5.688;2023-05-25T12:29:01;17.10;1.00
16417;DHT22;8317;52.186;5.688;2023-05-25T12:31:32;17.20;1.00
16417;DHT22;8317;52.186;5.688;2023-05-25T12:34:08;17.40;1.00
16417;DHT22;8317;52.186;5.688;2023-05-25T12:36:40;17.40;1.00
16417;DHT22;8317;52.186;5.688;2023-05-25T12:39:08;17.20;1.00
16417;DHT22;8317;52.186;5.688;2023-05-25T12:41:46;17.20;1.00
16417;DHT22;8317;52.186;5.688;2023-05-25T12:44:31;17.20;1.00
16417;DHT22;8317;52.186;5.688;2023-05-25T12:47:10;17.30;1.00
16417;DHT22;8317;52.186;5.688;2023-05-25T12:49:39;17.60;1.00
16417;DHT22;8317;52.186;5.688;2023-05-25T12:52:07;17.60;1.00
16417;DHT22;8317;52.186;5.688;2023-05-25T12:54:42;17.80;1.00
16417;DHT22;8317;52.186;5.688;2023-05-25T12:57:11;18.00;1.00
16417;DHT22;8317;52.186;5.688;2023-05-25T12:59:39;18.00;99.90
16417;DHT22;8317;52.186;5.688;2023-05-25T13:02:06;18.20;99.90
16417;DHT22;8317;52.186;5.688;2023-05-25T13:04:34;18.40;1.00
16417;DHT22;8317;52.186;5.688;2023-05-25T13:07:03;18.30;99.90
16417;DHT22;8317;52.186;5.688;2023-05-25T13:09:30;18.30;99.90
16417;DHT22;8317;52.186;5.688;2023-05-25T13:11:57;18.10;99.90
16417;DHT22;8317;52.186;5.688;2023-05-25T13:14:25;18.00;99.90
16417;DHT22;8317;52.186;5.688;2023-05-25T13:16:53;17.90;1.00
16417;DHT22;8317;52.186;5.688;2023-05-25T13:19:21;17.80;1.00
16417;DHT22;8317;52.186;5.688;2023-05-25T13:21:48;17.50;1.00
16417;DHT22;8317;52.186;5.688;2023-05-25T13:24:18;17.50;1.00
16417;DHT22;8317;52.186;5.688;2023-05-25T13:26:45;17.40;1.00
16417;DHT22;8317;52.186;5.688;2023-05-25T13:29:12;17.40;1.00
16417;DHT22;8317;52.186;5.688;2023-05-25T13:31:40;17.60;1.00
16417;DHT22;8317;52.186;5.688;2023-05-25T13:34:07;17.50;99.90
16417;DHT22;8317;52.186;5.688;2023-05-25T13:36:34;17.60;99.90
16417;DHT22;8317;52.186;5.688;2023-05-25T13:39:02;17.90;1.00
16417;DHT22;8317;52.186;5.688;2023-05-25T13:41:31;18.30;99.90
16417;DHT22;8317;52.186;5.688;2023-05-25T13:43:58;18.80;99.90
16417;DHT22;8317;52.186;5.688;2023-05-25T13:46:25;18.80;99.90
16417;DHT22;8317;52.186;5.688;2023-05-25T13:48:52;18.80;99.90
16417;DHT22;8317;52.186;5.688;2023-05-25T13:51:19;18.60;99.90
16417;DHT22;8317;52.186;5.688;2023-05-25T13:53:46;18.50;99.90
16417;DHT22;8317;52.186;5.688;2023-05-25T13:56:13;18.60;99.90
16417;DHT22;8317;52.186;5.688;2023-05-25T13:58:42;18.80;99.90
16417;DHT22;8317;52.186;5.688;2023-05-25T14:01:09;19.00;99.90
16417;DHT22;8317;52.186;5.688;2023-05-25T14:03:36;18.90;1.00
16417;DHT22;8317;52.186;5.688;2023-05-25T14:06:04;18.90;1.00
16417;DHT22;8317;52.186;5.688;2023-05-25T14:08:31;19.30;1.00
16417;DHT22;8317;52.186;5.688;2023-05-25T14:10:58;19.20;1.00
16417;DHT22;8317;52.186;5.688;2023-05-25T14:13:25;18.70;1.00
16417;DHT22;8317;52.186;5.688;2023-05-25T14:15:53;18.60;17.30
16417;DHT22;8317;52.186;5.688;2023-05-25T14:18:20;19.00;1.30
16417;DHT22;8317;52.186;5.688;2023-05-25T14:20:47;19.00;10.60
16417;DHT22;8317;52.186;5.688;2023-05-25T14:23:14;19.20;44.50
16417;DHT22;8317;52.186;5.688;2023-05-25T14:25:43;19.30;46.50
16417;DHT22;8317;52.186;5.688;2023-05-25T14:28:10;19.30;1.00
16417;DHT22;8317;52.186;5.688;2023-05-25T14:30:37;19.30;1.00
16417;DHT22;8317;52.186;5.688;2023-05-25T14:33:06;19.50;1.00
16417;DHT22;8317;52.186;5.688;2023-05-25T14:35:38;19.60;4.30
16417;DHT22;8317;52.186;5.688;2023-05-25T14:38:05;19.40;1.00
16417;DHT22;8317;52.186;5.688;2023-05-25T14:40:32;19.40;1.00
16417;DHT22;8317;52.186;5.688;2023-05-25T14:42:59;19.00;1.00
16417;DHT22;8317;52.186;5.688;2023-05-25T14:45:26;19.00;1.00
16417;DHT22;8317;52.186;5.688;2023-05-25T14:47:53;19.00;1.00
16417;DHT22;8317;52.186;5.688;2023-05-25T14:50:21;19.10;1.00
16417;DHT22;8317;52.186;5.688;2023-05-25T14:52:48;19.00;1.00
16417;DHT22;8317;52.186;5.688;2023-05-25T14:55:15;19.10;1.00
16417;DHT22;8317;52.186;5.688;2023-05-25T14:57:41;19.10;16.40
16417;DHT22;8317;52.186;5.688;2023-05-25T15:00:09;19.10;1.00
16417;DHT22;8317;52.186;5.688;2023-05-25T15:02:36;19.30;1.00
16417;DHT22;8317;52.186;5.688;2023-05-25T15:05:04;19.20;1.00
16417;DHT22;8317;52.186;5.688;2023-05-25T15:07:32;18.80;1.00
16417;DHT22;8317;52.186;5.688;2023-05-25T15:09:59;18.80;1.00
16417;DHT22;8317;52.186;5.688;2023-05-25T15:12:26;18.80;1.00
16417;DHT22;8317;52.186;5.688;2023-05-25T15:14:52;18.80;1.00
16417;DHT22;8317;52.186;5.688;2023-05-25T15:17:19;19.00;1.00
16417;DHT22;8317;52.186;5.688;2023-05-25T15:19:46;19.10;1.00
16417;DHT22;8317;52.186;5.688;2023-05-25T15:22:14;18.80;21.30
16417;DHT22;8317;52.186;5.688;2023-05-25T15:24:42;18.70;99.90
16417;DHT22;8317;52.186;5.688;2023-05-25T15:27:09;18.80;99.90
16417;DHT22;8317;52.186;5.688;2023-05-25T15:29:36;19.00;99.90
16417;DHT22;8317;52.186;5.688;2023-05-25T15:32:03;19.00;1.00
16417;DHT22;8317;52.186;5.688;2023-05-25T15:34:30;19.10;1.00
16417;DHT22;8317;52.186;5.688;2023-05-25T15:36:57;19.10;1.00
16417;DHT22;8317;52.186;5.688;2023-05-25T15:39:24;19.00;1.00
16417;DHT22;8317;52.186;5.688;2023-05-25T15:41:52;18.90;1.00
16417;DHT22;8317;52.186;5.688;2023-05-25T15:44:19;18.90;1.00
16417;DHT22;8317;52.186;5.688;2023-05-25T15:46:46;18.60;1.00
16417;DHT22;8317;52.186;5.688;2023-05-25T15:49:13;18.40;1.00
16417;DHT22;8317;52.186;5.688;2023-05-25T15:51:41;18.40;99.90
16417;DHT22;8317;52.186;5.688;2023-05-25T15:54:09;18.50;99.90
16417;DHT22;8317;52.186;5.688;2023-05-25T15:56:36;18.50;1.00
16417;DHT22;8317;52.186;5.688;2023-05-25T15:59:05;18.50;99.90
16417;DHT22;8317;52.186;5.688;2023-05-25T16:01:32;18.40;1.00